Terminal Aerodrome Forecast
Issued by NWS

Home | Current Version | Previous Version | Text Only | Print | Product List | Glossary On
Versions: 1 2 3 4 5 6 7 8 9 10 11 12 13 14 15 16 17 18 19
109
FTUS45 KRIW 281427 AAA
TAFCPR
TAF AMD
KCPR 281427Z 2814/2912 03008KT P6SM BKN010 OVC045
     FM281800 04008KT P6SM BKN020 OVC050
     FM282000 05007KT P6SM BKN035 OVC050
     FM290200 06010KT P6SM VCSH OVC016=

USA.gov is the U.S. government's official web portal to all federal, state and local government web resources and services.